Choir, Mongolia
Current Conditions -  °F | °C
As of 2:00 AM on Saturday 29 Nov 2014 (Local Time) from ZMUB Reporting Station
Smoke Smoke  
Wind Chill: -14°   Ceiling: Unl
Heat Index: -4°   Visibility: 3mi
Dew Point: -9°   Wind: 4mph
Humidity: 78%   Direction: 170°S
Pressure: 29.77"   Gusts: NA
Location:  46.45°N, 108.22°E
Report Text: ZMUB 281800Z 17002MPS 5000NW FU SCT100 M20/M23 Q1008 NOSIG RMK QFE649.4 74 NT
Loading
Personal Weather Stations






























Interactive Weather Map New forecast layout! Learn more

10-Day Weather Forecast

Advertisements
Track Severe Weather on mobile